Time;durP1;ratioP1;P1;durP2;ratioP2;P2;SDS_P1;SDS_P2;PMS_P1;PMS_P2;Temp;Humidity;BMP_temperature;BMP_pressure;BME280_temperature;BME280_humidity;BME280_pressure;Samples;Min_cycle;Max_cycle;Signal;HPM_P1;HPM_P2
2023/03/06 00:00:49;;;;;;;7.45;4.50;;;;;;;;;;5113479;28;20043;-65
2023/03/06 00:03:16;;;;;;;8.13;4.43;;;;;;;;;;5113284;28;20044;-65
2023/03/06 00:05:42;;;;;;;8.38;5.00;;;;;;;;;;5113057;28;20054;-65
2023/03/06 00:08:09;;;;;;;8.15;4.95;;;;;;;;;;5112564;28;20092;-65
2023/03/06 00:10:37;;;;;;;10.32;5.28;;;;;;;;;;5113275;28;20048;-65
2023/03/06 00:13:07;;;;;;;7.93;4.97;;;;;;;;;;5112767;28;20043;-65
2023/03/06 00:15:33;;;;;;;8.90;4.93;;;;;;;;;;5112760;28;20043;-65
2023/03/06 00:18:02;;;;;;;10.48;4.85;;;;;;;;;;5112388;28;20047;-65
2023/03/06 00:20:29;;;;;;;7.25;4.75;;;;;;;;;;5112865;28;20046;-65
2023/03/06 00:22:56;;;;;;;10.10;4.82;;;;;;;;;;5112669;28;20040;-65
2023/03/06 00:25:23;;;;;;;8.63;5.20;;;;;;;;;;5112600;28;20047;-65
2023/03/06 00:27:51;;;;;;;9.02;5.28;;;;;;;;;;5112559;28;20054;-65
2023/03/06 00:30:20;;;;;;;8.68;5.18;;;;;;;;;;5112851;28;20079;-65
2023/03/06 00:32:48;;;;;;;8.18;4.57;;;;;;;;;;5112362;28;20160;-65
2023/03/06 00:35:15;;;;;;;9.70;5.32;;;;;;;;;;5112341;28;20044;-65
2023/03/06 00:37:41;;;;;;;10.85;5.22;;;;;;;;;;5112259;28;20402;-66
2023/03/06 00:40:11;;;;;;;9.38;5.13;;;;;;;;;;5112599;28;20043;-68
2023/03/06 00:42:37;;;;;;;10.48;5.22;;;;;;;;;;5112029;28;20059;-65
2023/03/06 00:45:07;;;;;;;9.98;5.53;;;;;;;;;;5112551;28;20054;-66
2023/03/06 00:47:34;;;;;;;8.93;5.00;;;;;;;;;;5112160;28;20054;-65
2023/03/06 00:50:00;;;;;;;9.10;4.82;;;;;;;;;;5112466;28;20048;-66
2023/03/06 00:52:27;;;;;;;8.85;5.20;;;;;;;;;;5112153;28;20050;-65
2023/03/06 00:54:53;;;;;;;10.18;5.32;;;;;;;;;;5111957;28;20054;-65
2023/03/06 00:57:20;;;;;;;8.35;5.32;;;;;;;;;;5112486;28;20039;-65
2023/03/06 00:59:46;;;;;;;7.70;5.22;;;;;;;;;;5112022;28;20043;-65
2023/03/06 01:02:14;;;;;;;9.48;5.40;;;;;;;;;;5112524;28;20052;-65
2023/03/06 01:04:41;;;;;;;8.75;5.00;;;;;;;;;;5111752;28;20048;-65
2023/03/06 01:07:08;;;;;;;9.05;4.93;;;;;;;;;;5111933;28;20047;-65
2023/03/06 01:09:34;;;;;;;9.57;5.18;;;;;;;;;;5111688;28;20495;-66
2023/03/06 01:12:01;;;;;;;8.60;5.03;;;;;;;;;;5112341;28;20109;-65
2023/03/06 01:14:28;;;;;;;9.32;5.25;;;;;;;;;;5111581;28;20050;-65
2023/03/06 01:16:55;;;;;;;10.75;6.38;;;;;;;;;;5111914;28;20048;-65
2023/03/06 01:19:23;;;;;;;9.65;5.57;;;;;;;;;;5111399;28;20493;-65
2023/03/06 01:21:49;;;;;;;10.00;6.05;;;;;;;;;;5111380;28;20046;-65
2023/03/06 01:24:16;;;;;;;8.60;5.55;;;;;;;;;;5111625;28;20044;-65
2023/03/06 01:26:42;;;;;;;10.85;5.80;;;;;;;;;;5111592;28;20410;-65
2023/03/06 01:29:09;;;;;;;9.45;5.43;;;;;;;;;;5111128;28;20043;-66
2023/03/06 01:31:35;;;;;;;11.88;5.50;;;;;;;;;;5111723;28;20040;-66
2023/03/06 01:34:02;;;;;;;10.38;5.93;;;;;;;;;;5111244;28;20043;-65
2023/03/06 01:36:30;;;;;;;10.55;5.25;;;;;;;;;;5111585;28;20040;-65
2023/03/06 01:38:56;;;;;;;10.38;5.65;;;;;;;;;;5111372;28;20079;-65
2023/03/06 01:41:23;;;;;;;10.05;5.63;;;;;;;;;;5111192;28;20051;-65
2023/03/06 01:43:50;;;;;;;10.70;5.32;;;;;;;;;;5111381;28;20062;-65
2023/03/06 01:46:23;;;;;;;9.70;5.55;;;;;;;;;;5110931;28;20043;-65
2023/03/06 01:48:52;;;;;;;;;;;;;;;;;;5111587;28;20054;-65
2023/03/06 01:51:18;;;;;;;9.18;4.80;;;;;;;;;;5111050;28;20367;-65
2023/03/06 01:53:47;;;;;;;10.55;5.30;;;;;;;;;;5111141;28;20411;-65
2023/03/06 01:56:14;;;;;;;8.27;4.78;;;;;;;;;;5110531;28;20058;-65
2023/03/06 01:58:43;;;;;;;10.35;5.13;;;;;;;;;;5111180;28;20039;-63
2023/03/06 02:01:10;;;;;;;9.32;4.78;;;;;;;;;;5110917;28;20043;-65
2023/03/06 02:03:37;;;;;;;9.07;5.15;;;;;;;;;;5111518;28;20039;-65
2023/03/06 02:06:04;;;;;;;8.70;4.75;;;;;;;;;;5110732;28;20052;-65
2023/03/06 02:08:31;;;;;;;8.88;4.88;;;;;;;;;;5110777;28;20050;-65
2023/03/06 02:11:09;;;;;;;8.85;5.10;;;;;;;;;;5110722;28;20045;-65
2023/03/06 02:13:36;;;;;;;8.30;4.70;;;;;;;;;;5110864;28;20047;-65
2023/03/06 02:16:04;;;;;;;9.18;5.10;;;;;;;;;;5110665;28;20048;-65
2023/03/06 02:18:30;;;;;;;8.73;5.53;;;;;;;;;;5110934;28;20487;-65
2023/03/06 02:20:59;;;;;;;7.60;4.50;;;;;;;;;;5110570;28;20052;-65
2023/03/06 02:23:31;;;;;;;10.63;5.07;;;;;;;;;;5110974;28;20479;-65
2023/03/06 02:26:01;;;;;;;9.43;5.33;;;;;;;;;;5110666;28;20040;-65
2023/03/06 02:28:28;;;;;;;10.40;5.45;;;;;;;;;;5110586;28;20288;-65
2023/03/06 02:30:56;;;;;;;7.70;5.20;;;;;;;;;;5110264;28;20039;-65
2023/03/06 02:33:26;;;;;;;8.77;4.70;;;;;;;;;;5110391;28;20051;-65
2023/03/06 02:35:53;;;;;;;9.80;5.10;;;;;;;;;;5110367;28;20055;-65
2023/03/06 02:38:23;;;;;;;8.98;5.10;;;;;;;;;;5110539;28;20054;-65
2023/03/06 02:40:52;;;;;;;12.30;5.10;;;;;;;;;;5110704;28;20049;-65
2023/03/06 02:43:25;;;;;;;11.85;4.97;;;;;;;;;;5110117;28;20051;-65
2023/03/06 02:45:52;;;;;;;7.72;4.75;;;;;;;;;;5110689;28;20054;-66
2023/03/06 02:48:19;;;;;;;8.80;4.97;;;;;;;;;;5110405;28;20058;-65
2023/03/06 02:50:47;;;;;;;10.25;4.97;;;;;;;;;;5110712;28;20044;-65
2023/03/06 02:53:17;;;;;;;8.10;4.35;;;;;;;;;;5110229;28;20054;-65
2023/03/06 02:55:44;;;;;;;9.55;4.97;;;;;;;;;;5110210;28;20043;-65
2023/03/06 02:58:10;;;;;;;7.88;4.85;;;;;;;;;;5109879;28;20050;-65
2023/03/06 03:00:38;;;;;;;8.70;4.75;;;;;;;;;;5110628;28;20043;-65
2023/03/06 03:03:06;;;;;;;7.75;4.80;;;;;;;;;;5109988;28;20048;-65
2023/03/06 03:05:32;;;;;;;7.22;4.53;;;;;;;;;;5110661;28;20040;-66
2023/03/06 03:07:59;;;;;;;8.25;4.75;;;;;;;;;;5112920;28;20043;-66
2023/03/06 03:10:26;;;;;;;9.18;5.18;;;;;;;;;;5114691;28;20047;-65
2023/03/06 03:12:52;;;;;;;8.63;5.00;;;;;;;;;;5113840;28;20044;-65
2023/03/06 03:15:19;;;;;;;10.02;4.85;;;;;;;;;;5114616;28;20487;-65
2023/03/06 03:17:47;;;;;;;14.70;4.95;;;;;;;;;;5114090;28;20043;-66
2023/03/06 03:20:17;;;;;;;9.52;5.20;;;;;;;;;;5114150;28;20380;-65
2023/03/06 03:22:47;;;;;;;9.07;4.82;;;;;;;;;;5113851;28;20047;-65
2023/03/06 03:25:14;;;;;;;10.73;5.28;;;;;;;;;;5113776;28;20052;-65
2023/03/06 03:27:41;;;;;;;9.20;5.35;;;;;;;;;;5113585;28;20043;-65
2023/03/06 03:30:09;;;;;;;10.95;5.78;;;;;;;;;;5113751;28;20055;-65
2023/03/06 03:32:35;;;;;;;10.40;5.78;;;;;;;;;;5113512;28;20048;-65
2023/03/06 03:35:04;;;;;;;9.32;5.22;;;;;;;;;;5113894;28;20326;-65
2023/03/06 03:37:30;;;;;;;12.07;5.85;;;;;;;;;;5113923;28;20044;-65
2023/03/06 03:39:57;;;;;;;8.48;5.25;;;;;;;;;;5113068;28;20044;-65
2023/03/06 03:42:23;;;;;;;12.02;6.00;;;;;;;;;;5113725;28;20039;-66
2023/03/06 03:44:50;;;;;;;11.95;6.00;;;;;;;;;;5113378;28;20136;-65
2023/03/06 03:47:16;;;;;;;11.80;5.90;;;;;;;;;;5113692;28;20075;-65
2023/03/06 03:49:43;;;;;;;9.45;5.53;;;;;;;;;;5113030;28;20047;-65
2023/03/06 03:52:11;;;;;;;11.15;6.03;;;;;;;;;;5113552;28;20513;-65
2023/03/06 03:54:37;;;;;;;11.82;6.13;;;;;;;;;;5113138;28;20410;-65
2023/03/06 03:57:04;;;;;;;9.32;5.07;;;;;;;;;;5113729;28;20479;-65
2023/03/06 03:59:31;;;;;;;10.90;5.63;;;;;;;;;;5113229;28;20419;-65
2023/03/06 04:01:58;;;;;;;11.15;6.30;;;;;;;;;;5113134;28;20134;-65
2023/03/06 04:04:24;;;;;;;12.27;6.30;;;;;;;;;;5112955;28;20050;-65
2023/03/06 04:06:51;;;;;;;11.43;5.93;;;;;;;;;;5112925;28;20126;-65
2023/03/06 04:09:19;;;;;;;10.90;6.43;;;;;;;;;;5112077;28;20048;-65
2023/03/06 04:11:46;;;;;;;10.73;6.13;;;;;;;;;;5112570;28;20040;-65
2023/03/06 04:14:12;;;;;;;8.90;5.22;;;;;;;;;;5112208;28;20049;-66
2023/03/06 04:16:39;;;;;;;10.13;5.75;;;;;;;;;;5113020;28;20040;-65
2023/03/06 04:19:05;;;;;;;10.73;5.30;;;;;;;;;;5111645;28;20058;-66
2023/03/06 04:21:32;;;;;;;8.90;5.22;;;;;;;;;;5112610;28;20665;-65
2023/03/06 04:23:58;;;;;;;10.20;5.55;;;;;;;;;;5112055;28;20044;-65
2023/03/06 04:26:26;;;;;;;9.98;5.20;;;;;;;;;;5111887;28;20047;-66
2023/03/06 04:28:54;;;;;;;10.45;5.90;;;;;;;;;;5112314;28;20049;-66
2023/03/06 04:31:21;;;;;;;10.15;5.60;;;;;;;;;;5112126;28;20419;-66
2023/03/06 04:33:47;;;;;;;8.50;5.30;;;;;;;;;;5112105;28;20495;-66
2023/03/06 04:36:24;;;;;;;10.48;5.65;;;;;;;;;;5111864;28;20426;-66
2023/03/06 04:38:51;;;;;;;10.43;5.82;;;;;;;;;;5111614;28;20054;-66
2023/03/06 04:41:17;;;;;;;11.65;6.65;;;;;;;;;;5111654;28;20135;-66
2023/03/06 04:43:45;;;;;;;10.50;5.82;;;;;;;;;;5112031;28;20040;-65
2023/03/06 04:46:12;;;;;;;15.45;6.35;;;;;;;;;;5111845;28;20124;-66
2023/03/06 04:48:38;;;;;;;11.63;6.28;;;;;;;;;;5111638;28;20047;-66
2023/03/06 04:51:05;;;;;;;10.65;5.85;;;;;;;;;;5111600;28;20058;-65
2023/03/06 04:53:32;;;;;;;10.07;5.55;;;;;;;;;;5111190;28;20051;-66
2023/03/06 04:55:59;;;;;;;11.57;6.25;;;;;;;;;;5111341;28;20048;-65
2023/03/06 04:58:25;;;;;;;10.65;5.78;;;;;;;;;;5111251;28;20083;-66
2023/03/06 05:00:53;;;;;;;11.73;6.00;;;;;;;;;;5111539;28;20509;-66
2023/03/06 05:03:20;;;;;;;11.45;5.70;;;;;;;;;;5111360;28;20431;-65
2023/03/06 05:05:46;;;;;;;13.18;6.50;;;;;;;;;;5111333;28;20050;-66
2023/03/06 05:08:15;;;;;;;10.93;6.30;;;;;;;;;;5110820;28;20047;-65
2023/03/06 05:10:41;;;;;;;11.13;6.40;;;;;;;;;;5111488;28;20052;-66
2023/03/06 05:13:08;;;;;;;15.25;7.10;;;;;;;;;;5111158;28;20228;-65
2023/03/06 05:15:34;;;;;;;12.48;6.75;;;;;;;;;;5111494;28;20433;-66
2023/03/06 05:18:02;;;;;;;10.98;6.45;;;;;;;;;;5110814;28;20052;-66
2023/03/06 05:20:29;;;;;;;12.82;6.70;;;;;;;;;;5111156;28;20049;-66
2023/03/06 05:22:55;;;;;;;13.02;6.97;;;;;;;;;;5110893;28;20048;-66
2023/03/06 05:25:22;;;;;;;12.18;6.30;;;;;;;;;;5111701;28;20113;-66
2023/03/06 05:27:48;;;;;;;12.85;6.90;;;;;;;;;;5110800;28;20495;-65
2023/03/06 05:30:15;;;;;;;13.13;5.90;;;;;;;;;;5110494;28;20140;-65
2023/03/06 05:32:42;;;;;;;10.63;6.43;;;;;;;;;;5111174;28;20075;-66
2023/03/06 05:35:17;;;;;;;15.57;6.53;;;;;;;;;;5110598;28;20048;-65
2023/03/06 05:37:43;;;;;;;13.32;6.72;;;;;;;;;;5110719;28;20050;-65
2023/03/06 05:40:11;;;;;;;12.10;6.18;;;;;;;;;;5110836;28;20050;-65
2023/03/06 05:42:38;;;;;;;10.95;6.32;;;;;;;;;;5110526;28;20238;-66
2023/03/06 05:45:05;;;;;;;13.02;6.80;;;;;;;;;;5110718;28;20403;-66
2023/03/06 05:47:32;;;;;;;12.88;6.63;;;;;;;;;;5110130;28;20047;-65
2023/03/06 05:49:59;;;;;;;11.80;6.80;;;;;;;;;;5110636;28;20410;-66
2023/03/06 05:52:27;;;;;;;11.05;6.80;;;;;;;;;;5110461;28;20513;-66
2023/03/06 05:54:54;;;;;;;12.90;6.57;;;;;;;;;;5110663;28;20054;-65
2023/03/06 05:57:22;;;;;;;12.32;6.75;;;;;;;;;;5110391;28;20616;-65
2023/03/06 05:59:49;;;;;;;12.23;6.85;;;;;;;;;;5110587;28;20055;-65
2023/03/06 06:02:17;;;;;;;12.75;6.70;;;;;;;;;;5110001;28;20044;-66
2023/03/06 06:04:43;;;;;;;12.80;6.53;;;;;;;;;;5110462;28;20046;-66
2023/03/06 06:07:13;;;;;;;13.05;6.57;;;;;;;;;;5110255;28;20408;-65
2023/03/06 06:09:42;;;;;;;12.35;6.78;;;;;;;;;;5110377;28;20051;-66
2023/03/06 06:12:09;;;;;;;11.40;5.78;;;;;;;;;;5110460;28;20044;-66
2023/03/06 06:14:35;;;;;;;13.25;6.38;;;;;;;;;;5109797;28;20075;-66
2023/03/06 06:17:02;;;;;;;14.05;7.38;;;;;;;;;;5110085;28;20051;-65
2023/03/06 06:19:29;;;;;;;12.35;6.30;;;;;;;;;;5110176;28;20047;-66
2023/03/06 06:21:57;;;;;;;12.52;6.88;;;;;;;;;;5110391;28;20043;-65
2023/03/06 06:24:25;;;;;;;14.63;7.50;;;;;;;;;;5110034;28;20563;-66
2023/03/06 06:27:01;;;;;;;14.98;7.40;;;;;;;;;;5110059;28;20059;-65
2023/03/06 06:29:28;;;;;;;16.45;7.68;;;;;;;;;;5110508;28;20080;-66
2023/03/06 06:31:55;;;;;;;15.05;7.97;;;;;;;;;;5110783;28;20043;-65
2023/03/06 06:34:22;;;;;;;13.52;6.40;;;;;;;;;;5109990;28;20039;-66
2023/03/06 06:36:50;;;;;;;15.40;7.20;;;;;;;;;;5110394;28;20043;-66
2023/03/06 06:39:18;;;;;;;12.68;7.18;;;;;;;;;;5109637;28;20044;-66
2023/03/06 06:41:47;;;;;;;14.15;6.95;;;;;;;;;;5112771;28;20494;-65
2023/03/06 06:44:15;;;;;;;14.43;6.95;;;;;;;;;;5113930;28;20055;-66
2023/03/06 06:46:44;;;;;;;15.75;7.07;;;;;;;;;;5114282;28;20047;-66
2023/03/06 06:49:11;;;;;;;13.18;6.80;;;;;;;;;;5113665;28;20048;-66
2023/03/06 06:51:38;;;;;;;22.05;7.25;;;;;;;;;;5114343;28;20066;-66
2023/03/06 06:54:04;;;;;;;13.35;6.70;;;;;;;;;;5114207;28;20039;-66
2023/03/06 06:56:31;;;;;;;12.88;7.00;;;;;;;;;;5113799;28;20055;-62
2023/03/06 06:59:00;;;;;;;14.57;7.20;;;;;;;;;;5113718;28;20043;-64
2023/03/06 07:01:28;;;;;;;13.98;7.20;;;;;;;;;;5113973;28;20054;-68
2023/03/06 07:03:55;;;;;;;14.40;7.50;;;;;;;;;;5113784;28;20058;-70
2023/03/06 07:06:22;;;;;;;14.68;7.30;;;;;;;;;;5110921;28;20409;-69
2023/03/06 07:08:48;;;;;;;15.88;7.60;;;;;;;;;;5093843;28;20048;-69
2023/03/06 07:11:17;;;;;;;17.95;7.95;;;;;;;;;;5092569;28;20052;-68
2023/03/06 07:13:44;;;;;;;16.02;7.82;;;;;;;;;;5092684;28;20242;-69
2023/03/06 07:16:11;;;;;;;15.10;7.85;;;;;;;;;;5092865;28;20040;-66
2023/03/06 07:18:39;;;;;;;13.77;7.25;;;;;;;;;;5104838;28;20070;-67
2023/03/06 07:21:06;;;;;;;14.23;8.15;;;;;;;;;;5107159;28;20043;-65
2023/03/06 07:23:33;;;;;;;15.20;8.18;;;;;;;;;;5100928;28;20048;-64
2023/03/06 07:25:59;;;;;;;13.00;6.68;;;;;;;;;;5107702;28;20052;-68
2023/03/06 07:28:26;;;;;;;13.13;7.50;;;;;;;;;;5104440;28;20043;-69
2023/03/06 07:30:53;;;;;;;16.55;8.13;;;;;;;;;;5100897;28;20516;-67
2023/03/06 07:33:20;;;;;;;15.02;7.65;;;;;;;;;;5101727;28;20044;-67
2023/03/06 07:35:48;;;;;;;15.43;8.18;;;;;;;;;;5100340;28;20048;-68
2023/03/06 07:38:14;;;;;;;16.38;7.50;;;;;;;;;;5104394;28;20044;-68
2023/03/06 07:40:41;;;;;;;18.15;7.97;;;;;;;;;;5095154;28;20407;-67
2023/03/06 07:43:07;;;;;;;13.32;7.30;;;;;;;;;;5096666;28;20471;-66
2023/03/06 07:45:34;;;;;;;18.20;8.50;;;;;;;;;;5092027;28;20054;-66
2023/03/06 07:48:01;;;;;;;16.95;7.90;;;;;;;;;;5110382;28;20036;-66
2023/03/06 07:50:28;;;;;;;17.95;8.40;;;;;;;;;;5112372;28;20047;-66
2023/03/06 07:52:55;;;;;;;20.20;8.45;;;;;;;;;;5111603;28;20048;-67
2023/03/06 07:55:22;;;;;;;15.25;8.20;;;;;;;;;;5099536;28;20042;-67
2023/03/06 07:57:50;;;;;;;16.65;8.30;;;;;;;;;;5093170;28;20360;-67
2023/03/06 08:00:17;;;;;;;14.40;7.72;;;;;;;;;;5093669;28;20056;-66
2023/03/06 08:02:43;;;;;;;17.05;8.07;;;;;;;;;;5092265;28;20051;-68
2023/03/06 08:05:13;;;;;;;16.77;7.95;;;;;;;;;;5091947;28;20036;-66
2023/03/06 08:07:39;;;;;;;18.83;8.63;;;;;;;;;;5091542;28;20407;-68
2023/03/06 08:10:09;;;;;;;18.40;8.27;;;;;;;;;;5101490;28;20470;-68
2023/03/06 08:12:35;;;;;;;16.95;8.15;;;;;;;;;;5104320;28;20070;-65
2023/03/06 08:15:02;;;;;;;16.85;8.43;;;;;;;;;;5099572;28;20054;-64
2023/03/06 08:17:28;;;;;;;16.83;8.05;;;;;;;;;;5099615;28;20104;-65
2023/03/06 08:19:55;;;;;;;17.13;8.20;;;;;;;;;;5090480;28;20051;-64
2023/03/06 08:22:22;;;;;;;18.50;8.20;;;;;;;;;;5096629;28;20436;-66
2023/03/06 08:24:49;;;;;;;16.30;8.43;;;;;;;;;;5108959;28;20134;-64
2023/03/06 08:27:16;;;;;;;17.52;8.70;;;;;;;;;;5109376;28;20039;-65
2023/03/06 08:29:43;;;;;;;17.52;8.77;;;;;;;;;;5092385;28;20507;-63
2023/03/06 08:32:11;;;;;;;20.17;9.35;;;;;;;;;;5088533;28;20054;-65
2023/03/06 08:34:39;;;;;;;19.80;9.48;;;;;;;;;;5093150;28;20051;-65
2023/03/06 08:37:06;;;;;;;19.38;8.75;;;;;;;;;;5111029;28;20138;-65
2023/03/06 08:39:33;;;;;;;19.63;8.25;;;;;;;;;;5110093;28;20043;-65
2023/03/06 08:41:59;;;;;;;17.20;8.68;;;;;;;;;;5106688;28;20039;-65
2023/03/06 08:44:27;;;;;;;16.83;8.15;;;;;;;;;;5100966;28;20036;-67
2023/03/06 08:46:54;;;;;;;16.52;8.48;;;;;;;;;;5101123;28;20047;-67
2023/03/06 08:49:21;;;;;;;16.52;8.73;;;;;;;;;;5111093;28;20535;-67
2023/03/06 08:51:47;;;;;;;16.60;8.65;;;;;;;;;;5111050;28;20142;-68
2023/03/06 08:54:14;;;;;;;17.40;8.30;;;;;;;;;;5097314;28;20392;-66
2023/03/06 08:56:40;;;;;;;19.15;8.23;;;;;;;;;;5110768;28;20127;-68
2023/03/06 08:59:08;;;;;;;19.88;9.75;;;;;;;;;;5088793;28;20048;-68
2023/03/06 09:01:37;;;;;;;21.10;8.82;;;;;;;;;;5091927;28;20487;-68
2023/03/06 09:04:07;;;;;;;16.05;8.73;;;;;;;;;;5091727;28;20145;-68
2023/03/06 09:06:35;;;;;;;17.75;8.55;;;;;;;;;;5094132;28;20208;-69
2023/03/06 09:09:03;;;;;;;15.15;8.40;;;;;;;;;;5088500;28;20408;-68
2023/03/06 09:11:30;;;;;;;18.35;9.27;;;;;;;;;;5090770;28;20044;-66
2023/03/06 09:13:58;;;;;;;16.45;8.48;;;;;;;;;;5105971;28;20503;-68
2023/03/06 09:16:24;;;;;;;15.32;8.20;;;;;;;;;;5097056;28;20120;-66
2023/03/06 09:18:53;;;;;;;18.75;9.88;;;;;;;;;;5106917;28;20054;-65
2023/03/06 09:21:20;;;;;;;18.60;8.35;;;;;;;;;;5108054;28;20076;-66
2023/03/06 09:23:47;;;;;;;15.35;8.88;;;;;;;;;;5094833;28;20052;-66
2023/03/06 09:26:13;;;;;;;16.00;8.57;;;;;;;;;;5091949;28;20070;-68
2023/03/06 09:28:41;;;;;;;17.17;9.20;;;;;;;;;;5093817;28;20051;-68
2023/03/06 09:31:09;;;;;;;17.73;8.27;;;;;;;;;;5106277;28;20721;-67
2023/03/06 09:33:36;;;;;;;15.40;8.07;;;;;;;;;;5091297;28;20040;-68
2023/03/06 09:36:05;;;;;;;16.63;8.98;;;;;;;;;;5087214;28;20046;-67
2023/03/06 09:38:31;;;;;;;19.27;9.15;;;;;;;;;;5083427;28;20044;-68
2023/03/06 09:41:07;;;;;;;16.55;9.73;;;;;;;;;;5088508;28;20055;-70
2023/03/06 09:43:37;;;;;;;18.02;8.80;;;;;;;;;;5100014;28;20043;-69
2023/03/06 09:46:16;;;;;;;19.10;9.45;;;;;;;;;;5101675;28;20047;-69
2023/03/06 09:48:52;;;;;;;18.38;8.73;;;;;;;;;;5107145;28;20537;-67
2023/03/06 09:51:27;;;;;;;17.70;9.38;;;;;;;;;;5103122;28;20054;-69
2023/03/06 09:54:01;;;;;;;17.08;9.65;;;;;;;;;;5097005;28;20078;-66
2023/03/06 09:56:33;;;;;;;17.48;8.57;;;;;;;;;;5105991;28;20050;-68
2023/03/06 09:59:07;;;;;;;16.15;8.85;;;;;;;;;;5102786;28;20483;-68
2023/03/06 10:01:37;;;;;;;18.45;10.32;;;;;;;;;;5093851;28;20653;-68
2023/03/06 10:04:11;;;;;;;15.65;7.88;;;;;;;;;;5087542;28;20047;-68
2023/03/06 10:06:44;;;;;;;14.40;8.55;;;;;;;;;;5108317;28;20146;-68
2023/03/06 10:09:14;;;;;;;14.98;7.65;;;;;;;;;;5108145;28;20050;-68
2023/03/06 10:11:45;;;;;;;15.88;8.30;;;;;;;;;;5108591;28;20047;-67
2023/03/06 10:14:18;;;;;;;15.95;9.27;;;;;;;;;;5101949;28;20062;-68
2023/03/06 10:16:44;;;;;;;14.63;8.10;;;;;;;;;;5105234;28;20491;-67
2023/03/06 10:19:15;;;;;;;17.52;9.52;;;;;;;;;;5103500;28;20050;-68
2023/03/06 10:21:55;;;;;;;18.38;9.13;;;;;;;;;;5093694;28;20480;-69
2023/03/06 10:24:50;;;;;;;14.52;7.45;;;;;;;;;;5096235;28;20430;-66
2023/03/06 10:27:30;;;;;;;16.27;9.07;;;;;;;;;;5089078;28;20414;-68
2023/03/06 10:30:02;;;;;;;14.75;8.45;;;;;;;;;;5096847;28;20076;-66
2023/03/06 10:32:36;;;;;;;18.77;10.43;;;;;;;;;;5097422;28;20551;-65
2023/03/06 10:35:12;;;;;;;16.67;8.20;;;;;;;;;;5096689;28;20407;-67
2023/03/06 10:37:40;;;;;;;16.08;8.50;;;;;;;;;;5091750;28;20527;-67
2023/03/06 10:40:15;;;;;;;16.75;8.07;;;;;;;;;;5103262;28;20134;-67
2023/03/06 10:42:42;;;;;;;16.75;8.20;;;;;;;;;;5093944;28;20055;-67
2023/03/06 10:45:11;;;;;;;19.00;9.20;;;;;;;;;;5105095;28;20050;-71
2023/03/06 10:47:39;;;;;;;14.98;7.82;;;;;;;;;;5102212;28;20075;-69
2023/03/06 10:50:20;;;;;;;15.63;8.05;;;;;;;;;;5103194;28;20047;-68
2023/03/06 10:52:59;;;;;;;15.70;7.57;;;;;;;;;;5102019;28;20055;-69
2023/03/06 10:55:28;;;;;;;14.68;7.53;;;;;;;;;;5108921;28;20457;-69
2023/03/06 10:57:55;;;;;;;16.30;8.57;;;;;;;;;;5096510;28;20039;-68
2023/03/06 11:00:40;;;;;;;17.10;8.60;;;;;;;;;;5100549;28;20490;-68
2023/03/06 11:03:17;;;;;;;19.52;8.73;;;;;;;;;;5094391;28;20051;-69
2023/03/06 11:05:55;;;;;;;18.23;8.43;;;;;;;;;;5089095;28;20044;-67
2023/03/06 11:08:24;;;;;;;18.13;8.85;;;;;;;;;;5088042;28;20042;-68
2023/03/06 11:10:59;;;;;;;16.45;8.38;;;;;;;;;;5106024;28;20445;-67
2023/03/06 11:13:28;;;;;;;15.27;8.00;;;;;;;;;;5109155;28;20082;-68
2023/03/06 11:15:57;;;;;;;16.25;7.85;;;;;;;;;;5109212;28;20495;-67
2023/03/06 11:18:35;;;;;;;14.48;8.25;;;;;;;;;;5096249;28;20048;-67
2023/03/06 11:21:06;;;;;;;19.88;8.35;;;;;;;;;;5101085;28;20047;-68
2023/03/06 11:23:40;;;;;;;17.15;8.50;;;;;;;;;;5108972;28;20069;-69
2023/03/06 11:26:25;;;;;;;14.32;8.00;;;;;;;;;;5087760;28;20472;-67
2023/03/06 11:29:02;;;;;;;16.63;8.13;;;;;;;;;;5107351;28;20495;-66
2023/03/06 11:31:32;;;;;;;14.25;7.47;;;;;;;;;;5112516;28;20073;-68
2023/03/06 11:34:04;;;;;;;17.35;8.15;;;;;;;;;;5106731;28;20130;-66
2023/03/06 11:36:38;;;;;;;14.95;8.50;;;;;;;;;;5088213;28;20040;-65
2023/03/06 11:39:22;;;;;;;17.10;9.00;;;;;;;;;;5094152;28;20050;-66
2023/03/06 11:41:56;;;;;;;17.67;8.43;;;;;;;;;;5101615;28;20054;-67
2023/03/06 11:44:34;;;;;;;18.38;8.65;;;;;;;;;;5104406;28;20127;-68
2023/03/06 11:47:08;;;;;;;17.90;8.55;;;;;;;;;;5097248;28;20036;-68
2023/03/06 11:49:41;;;;;;;16.55;7.90;;;;;;;;;;5095019;28;20483;-68
2023/03/06 11:52:12;;;;;;;;;;;;;;;;;;5096206;28;20042;-68
2023/03/06 11:54:40;;;;;;;18.83;8.68;;;;;;;;;;5092593;28;19931;-68
2023/03/06 11:57:15;;;;;;;15.80;8.45;;;;;;;;;;5091742;28;20044;-68
2023/03/06 11:59:59;;;;;;;15.98;8.13;;;;;;;;;;5109889;28;20055;-68
2023/03/06 12:02:41;;;;;;;13.70;7.72;;;;;;;;;;5106534;28;20047;-68
2023/03/06 12:05:26;;;;;;;13.02;7.65;;;;;;;;;;5099003;28;20089;-68
2023/03/06 12:08:02;;;;;;;15.18;8.35;;;;;;;;;;5093187;28;20048;-68
2023/03/06 12:10:35;;;;;;;13.35;7.38;;;;;;;;;;5103699;28;20039;-68
2023/03/06 12:13:24;;;;;;;15.70;7.53;;;;;;;;;;5100893;28;20048;-68
2023/03/06 12:16:08;;;;;;;14.65;7.85;;;;;;;;;;5088388;28;20050;-68
2023/03/06 12:18:45;;;;;;;15.35;7.68;;;;;;;;;;5101922;28;20641;-68
2023/03/06 12:21:21;;;;;;;13.43;7.75;;;;;;;;;;5096590;28;20502;-68
2023/03/06 12:24:02;;;;;;;15.35;7.60;;;;;;;;;;5092439;28;20048;-68
2023/03/06 12:26:54;;;;;;;13.88;7.93;;;;;;;;;;5100460;28;20499;-68
2023/03/06 12:29:33;;;;;;;15.52;7.53;;;;;;;;;;5092664;28;20040;-68
2023/03/06 12:32:13;;;;;;;11.40;6.63;;;;;;;;;;5110242;28;20043;-68
2023/03/06 12:35:08;;;;;;;11.43;6.65;;;;;;;;;;5096957;28;20055;-68
2023/03/06 12:37:50;;;;;;;11.63;6.75;;;;;;;;;;5105885;28;20043;-68
2023/03/06 12:40:36;;;;;;;17.30;7.75;;;;;;;;;;5099914;28;20434;-68
2023/03/06 12:43:37;;;;;;;13.73;7.00;;;;;;;;;;5091028;28;20416;-68
2023/03/06 12:46:11;;;;;;;13.13;6.75;;;;;;;;;;5102105;28;20411;-68
2023/03/06 12:48:39;;;;;;;12.77;7.28;;;;;;;;;;5090623;28;20414;-68
2023/03/06 12:51:10;;;;;;;13.75;6.80;;;;;;;;;;5101447;28;20518;-68
2023/03/06 12:53:37;;;;;;;12.85;6.40;;;;;;;;;;5084198;28;20044;-68
2023/03/06 12:56:05;;;;;;;13.85;7.20;;;;;;;;;;5089505;28;20530;-68
2023/03/06 12:58:47;;;;;;;10.82;6.85;;;;;;;;;;5103549;28;20138;-67
2023/03/06 13:01:26;;;;;;;14.88;9.18;;;;;;;;;;5100214;28;20051;-67
2023/03/06 13:04:05;;;;;;;12.65;6.93;;;;;;;;;;5104529;28;20054;-69
2023/03/06 13:06:50;;;;;;;11.88;7.03;;;;;;;;;;5094964;28;20051;-67
2023/03/06 13:09:26;;;;;;;12.25;7.10;;;;;;;;;;5107808;28;20503;-67
2023/03/06 13:12:13;;;;;;;11.35;6.40;;;;;;;;;;5107413;28;20418;-67
2023/03/06 13:14:56;;;;;;;14.60;7.80;;;;;;;;;;5086749;28;20050;-69
2023/03/06 13:17:27;;;;;;;13.70;7.68;;;;;;;;;;5088615;28;20054;-67
2023/03/06 13:20:26;;;;;;;14.90;7.72;;;;;;;;;;5096810;28;20056;-67
2023/03/06 13:22:52;;;;;;;13.52;7.60;;;;;;;;;;5081793;28;20050;-69
2023/03/06 13:25:56;;;;;;;15.40;8.13;;;;;;;;;;5100334;28;20066;-67
2023/03/06 13:28:25;;;;;;;15.13;8.05;;;;;;;;;;5099651;28;20128;-67
2023/03/06 13:30:54;;;;;;;16.13;7.60;;;;;;;;;;5095708;28;20130;-67
2023/03/06 13:33:53;;;;;;;15.48;7.65;;;;;;;;;;5095429;28;20729;-68
2023/03/06 13:36:29;;;;;;;14.38;7.82;;;;;;;;;;5107657;28;20141;-67
2023/03/06 13:39:06;;;;;;;14.23;7.95;;;;;;;;;;5108571;28;20407;-68
2023/03/06 13:41:42;;;;;;;11.10;6.80;;;;;;;;;;5100499;28;20066;-67
2023/03/06 13:44:40;;;;;;;13.15;7.35;;;;;;;;;;5097410;28;20062;-68
2023/03/06 13:47:29;;;;;;;13.18;7.25;;;;;;;;;;5091811;28;20048;-68
2023/03/06 13:49:57;;;;;;;15.43;7.90;;;;;;;;;;5096377;28;20058;-67
2023/03/06 13:52:35;;;;;;;14.00;7.65;;;;;;;;;;5108088;28;20286;-68
2023/03/06 13:55:10;;;;;;;13.38;7.72;;;;;;;;;;5106313;28;20048;-67
2023/03/06 13:57:47;;;;;;;15.45;8.70;;;;;;;;;;5095259;28;20050;-67
2023/03/06 14:00:27;;;;;;;15.48;9.23;;;;;;;;;;5108322;28;20044;-67
2023/03/06 14:03:26;;;;;;;12.85;8.05;;;;;;;;;;5088898;28;20046;-67
2023/03/06 14:05:54;;;;;;;17.33;9.48;;;;;;;;;;5082944;28;20089;-68
2023/03/06 14:08:23;;;;;;;17.50;9.75;;;;;;;;;;5109311;28;20085;-68
2023/03/06 14:11:01;;;;;;;18.10;9.73;;;;;;;;;;5109295;28;20408;-67
2023/03/06 14:13:34;;;;;;;17.00;9.07;;;;;;;;;;5096185;28;20073;-67
2023/03/06 14:16:00;;;;;;;17.45;9.38;;;;;;;;;;5104411;28;20040;-67
2023/03/06 14:18:33;;;;;;;16.08;9.63;;;;;;;;;;5104039;28;20047;-67
2023/03/06 14:21:04;;;;;;;16.42;8.15;;;;;;;;;;5098652;28;20046;-67
2023/03/06 14:23:34;;;;;;;13.20;7.25;;;;;;;;;;5097505;28;20040;-68
2023/03/06 14:26:06;;;;;;;15.68;8.07;;;;;;;;;;5109278;28;20043;-67
2023/03/06 14:28:34;;;;;;;16.02;8.07;;;;;;;;;;5090444;28;20513;-67
2023/03/06 14:31:03;;;;;;;18.35;8.48;;;;;;;;;;5092913;28;20063;-68
2023/03/06 14:33:34;;;;;;;19.23;8.73;;;;;;;;;;5091134;28;20142;-67
2023/03/06 14:36:05;;;;;;;17.05;7.78;;;;;;;;;;5091254;28;20056;-67
2023/03/06 14:38:36;;;;;;;16.05;8.77;;;;;;;;;;5106317;28;20134;-67
2023/03/06 14:41:04;;;;;;;20.77;9.82;;;;;;;;;;5106446;28;20505;-68
2023/03/06 14:43:31;;;;;;;16.02;8.77;;;;;;;;;;5105841;28;20050;-68
2023/03/06 14:46:00;;;;;;;13.98;7.75;;;;;;;;;;5093209;28;20044;-68
2023/03/06 14:48:38;;;;;;;15.10;8.10;;;;;;;;;;5096341;28;20047;-68
2023/03/06 14:51:13;;;;;;;21.27;10.48;;;;;;;;;;5097454;28;20534;-67